sensor_id;sensor_type;location;lat;lon;timestamp;pressure;altitude;pressure_sealevel;temperature;humidity
14393;BME280;7281;42.678;23.372;2023-02-14T00:00:55;61859.38;;;-140.05;100.00
14393;BME280;7281;42.678;23.372;2023-02-14T00:03:22;61859.38;;;-140.05;100.00
14393;BME280;7281;42.678;23.372;2023-02-14T00:05:49;61859.38;;;-140.05;100.00
14393;BME280;7281;42.678;23.372;2023-02-14T00:08:16;61859.38;;;-140.05;100.00
14393;BME280;7281;42.678;23.372;2023-02-14T00:10:43;61859.38;;;-140.05;100.00
14393;BME280;7281;42.678;23.372;2023-02-14T00:13:10;61859.38;;;-140.05;100.00
14393;BME280;7281;42.678;23.372;2023-02-14T00:15:37;61859.38;;;-140.05;100.00
14393;BME280;7281;42.678;23.372;2023-02-14T00:18:04;61859.38;;;-140.05;100.00
14393;BME280;7281;42.678;23.372;2023-02-14T00:20:31;61859.38;;;-140.05;100.00
14393;BME280;7281;42.678;23.372;2023-02-14T00:22:58;61859.38;;;-140.05;100.00
14393;BME280;7281;42.678;23.372;2023-02-14T00:25:26;61859.38;;;-140.05;100.00
14393;BME280;7281;42.678;23.372;2023-02-14T00:27:53;61859.38;;;-140.05;100.00
14393;BME280;7281;42.678;23.372;2023-02-14T00:30:21;61859.38;;;-140.05;100.00
14393;BME280;7281;42.678;23.372;2023-02-14T00:32:48;61859.38;;;-140.05;100.00
14393;BME280;7281;42.678;23.372;2023-02-14T00:35:15;61859.38;;;-140.05;100.00
14393;BME280;7281;42.678;23.372;2023-02-14T00:37:44;61859.38;;;-140.05;100.00
14393;BME280;7281;42.678;23.372;2023-02-14T00:40:12;61859.38;;;-140.05;100.00
14393;BME280;7281;42.678;23.372;2023-02-14T00:42:38;61859.38;;;-140.05;100.00
14393;BME280;7281;42.678;23.372;2023-02-14T00:45:06;61859.38;;;-140.05;100.00
14393;BME280;7281;42.678;23.372;2023-02-14T00:47:34;61859.38;;;-140.05;100.00
14393;BME280;7281;42.678;23.372;2023-02-14T00:50:02;61859.38;;;-140.05;100.00
14393;BME280;7281;42.678;23.372;2023-02-14T00:52:30;61859.38;;;-140.05;100.00
14393;BME280;7281;42.678;23.372;2023-02-14T00:54:57;61859.38;;;-140.05;100.00
14393;BME280;7281;42.678;23.372;2023-02-14T00:57:24;61859.38;;;-140.05;100.00
14393;BME280;7281;42.678;23.372;2023-02-14T00:59:51;61859.38;;;-140.05;100.00
14393;BME280;7281;42.678;23.372;2023-02-14T01:02:20;61859.38;;;-140.05;100.00
14393;BME280;7281;42.678;23.372;2023-02-14T01:04:47;61859.38;;;-140.05;100.00
14393;BME280;7281;42.678;23.372;2023-02-14T01:07:14;61859.38;;;-140.05;100.00
14393;BME280;7281;42.678;23.372;2023-02-14T01:09:41;61859.38;;;-140.05;100.00
14393;BME280;7281;42.678;23.372;2023-02-14T01:12:08;61859.38;;;-140.05;100.00
14393;BME280;7281;42.678;23.372;2023-02-14T01:14:35;61859.38;;;-140.05;100.00
14393;BME280;7281;42.678;23.372;2023-02-14T01:17:01;61859.38;;;-140.05;100.00
14393;BME280;7281;42.678;23.372;2023-02-14T01:19:28;61859.38;;;-140.05;100.00
14393;BME280;7281;42.678;23.372;2023-02-14T01:21:55;61859.38;;;-140.05;100.00
14393;BME280;7281;42.678;23.372;2023-02-14T01:24:22;61859.38;;;-140.05;100.00
14393;BME280;7281;42.678;23.372;2023-02-14T01:26:50;61859.38;;;-140.05;100.00
14393;BME280;7281;42.678;23.372;2023-02-14T01:29:17;61859.38;;;-140.05;100.00
14393;BME280;7281;42.678;23.372;2023-02-14T01:31:44;61859.38;;;-140.05;100.00
14393;BME280;7281;42.678;23.372;2023-02-14T01:34:14;61859.38;;;-140.05;100.00
14393;BME280;7281;42.678;23.372;2023-02-14T01:36:40;61859.38;;;-140.05;100.00
14393;BME280;7281;42.678;23.372;2023-02-14T01:39:10;61859.38;;;-140.05;100.00
14393;BME280;7281;42.678;23.372;2023-02-14T01:41:41;61859.38;;;-140.05;100.00
14393;BME280;7281;42.678;23.372;2023-02-14T01:46:44;61859.38;;;-140.05;100.00
14393;BME280;7281;42.678;23.372;2023-02-14T01:49:18;61859.38;;;-140.05;100.00
14393;BME280;7281;42.678;23.372;2023-02-14T01:52:07;61859.38;;;-140.05;100.00
14393;BME280;7281;42.678;23.372;2023-02-14T01:54:42;61859.38;;;-140.05;100.00
14393;BME280;7281;42.678;23.372;2023-02-14T01:57:12;61859.38;;;-140.05;100.00
14393;BME280;7281;42.678;23.372;2023-02-14T01:59:50;61859.38;;;-140.05;100.00
14393;BME280;7281;42.678;23.372;2023-02-14T02:02:18;61859.38;;;-140.05;100.00
14393;BME280;7281;42.678;23.372;2023-02-14T02:04:52;61859.38;;;-140.05;100.00
14393;BME280;7281;42.678;23.372;2023-02-14T02:07:25;61859.38;;;-140.05;100.00
14393;BME280;7281;42.678;23.372;2023-02-14T02:09:59;61859.38;;;-140.05;100.00
14393;BME280;7281;42.678;23.372;2023-02-14T02:12:27;61859.38;;;-140.05;100.00
14393;BME280;7281;42.678;23.372;2023-02-14T02:14:57;61859.38;;;-140.05;100.00
14393;BME280;7281;42.678;23.372;2023-02-14T02:26:33;61859.38;;;-140.05;100.00
14393;BME280;7281;42.678;23.372;2023-02-14T02:40:05;61859.38;;;-140.05;100.00
14393;BME280;7281;42.678;23.372;2023-02-14T02:42:51;61859.38;;;-140.05;100.00
14393;BME280;7281;42.678;23.372;2023-02-14T02:48:09;61859.38;;;-140.05;100.00
14393;BME280;7281;42.678;23.372;2023-02-14T02:50:48;61859.38;;;-140.05;100.00
14393;BME280;7281;42.678;23.372;2023-02-14T02:53:59;61859.38;;;-140.05;100.00
14393;BME280;7281;42.678;23.372;2023-02-14T02:56:38;61859.38;;;-140.05;100.00
14393;BME280;7281;42.678;23.372;2023-02-14T03:04:44;61859.38;;;-140.05;100.00
14393;BME280;7281;42.678;23.372;2023-02-14T03:21:18;61859.38;;;-140.05;100.00
14393;BME280;7281;42.678;23.372;2023-02-14T03:26:57;61859.38;;;-140.05;100.00
14393;BME280;7281;42.678;23.372;2023-02-14T03:32:38;61859.38;;;-140.05;100.00
14393;BME280;7281;42.678;23.372;2023-02-14T03:35:36;61859.38;;;-140.05;100.00
14393;BME280;7281;42.678;23.372;2023-02-14T03:38:18;61859.38;;;-140.05;100.00
14393;BME280;7281;42.678;23.372;2023-02-14T03:40:49;61859.38;;;-140.05;100.00
14393;BME280;7281;42.678;23.372;2023-02-14T03:43:30;61859.38;;;-140.05;100.00
14393;BME280;7281;42.678;23.372;2023-02-14T03:46:07;61859.38;;;-140.05;100.00
14393;BME280;7281;42.678;23.372;2023-02-14T03:48:37;61859.38;;;-140.05;100.00
14393;BME280;7281;42.678;23.372;2023-02-14T03:51:08;61859.38;;;-140.05;100.00
14393;BME280;7281;42.678;23.372;2023-02-14T03:53:40;61859.38;;;-140.05;100.00
14393;BME280;7281;42.678;23.372;2023-02-14T03:56:14;61859.38;;;-140.05;100.00
14393;BME280;7281;42.678;23.372;2023-02-14T03:58:49;61859.38;;;-140.05;100.00
14393;BME280;7281;42.678;23.372;2023-02-14T04:01:23;61859.38;;;-140.05;100.00
14393;BME280;7281;42.678;23.372;2023-02-14T04:03:52;61859.38;;;-140.05;100.00
14393;BME280;7281;42.678;23.372;2023-02-14T04:06:21;61859.38;;;-140.05;100.00
14393;BME280;7281;42.678;23.372;2023-02-14T04:08:48;61859.38;;;-140.05;100.00
14393;BME280;7281;42.678;23.372;2023-02-14T04:11:15;61859.38;;;-140.05;100.00
14393;BME280;7281;42.678;23.372;2023-02-14T04:13:42;61859.38;;;-140.05;100.00
14393;BME280;7281;42.678;23.372;2023-02-14T04:16:09;61859.38;;;-140.05;100.00
14393;BME280;7281;42.678;23.372;2023-02-14T04:18:36;61859.38;;;-140.05;100.00
14393;BME280;7281;42.678;23.372;2023-02-14T04:21:21;61859.38;;;-140.05;100.00
14393;BME280;7281;42.678;23.372;2023-02-14T04:23:48;61859.38;;;-140.05;100.00
14393;BME280;7281;42.678;23.372;2023-02-14T04:26:15;61859.38;;;-140.05;100.00
14393;BME280;7281;42.678;23.372;2023-02-14T04:28:42;61859.38;;;-140.05;100.00
14393;BME280;7281;42.678;23.372;2023-02-14T04:31:09;61859.38;;;-140.05;100.00
14393;BME280;7281;42.678;23.372;2023-02-14T04:33:36;61859.38;;;-140.05;100.00
14393;BME280;7281;42.678;23.372;2023-02-14T04:36:34;61859.38;;;-140.05;100.00
14393;BME280;7281;42.678;23.372;2023-02-14T04:39:06;61859.38;;;-140.05;100.00
14393;BME280;7281;42.678;23.372;2023-02-14T04:41:33;61859.38;;;-140.05;100.00
14393;BME280;7281;42.678;23.372;2023-02-14T04:44:25;61859.38;;;-140.05;100.00
14393;BME280;7281;42.678;23.372;2023-02-14T04:46:54;61859.38;;;-140.05;100.00
14393;BME280;7281;42.678;23.372;2023-02-14T04:49:21;61859.38;;;-140.05;100.00
14393;BME280;7281;42.678;23.372;2023-02-14T04:51:56;61859.38;;;-140.05;100.00
14393;BME280;7281;42.678;23.372;2023-02-14T04:54:26;61859.38;;;-140.05;100.00
14393;BME280;7281;42.678;23.372;2023-02-14T04:56:54;61859.38;;;-140.05;100.00
14393;BME280;7281;42.678;23.372;2023-02-14T04:59:24;61859.38;;;-140.05;100.00
14393;BME280;7281;42.678;23.372;2023-02-14T05:02:39;61859.38;;;-140.05;100.00
14393;BME280;7281;42.678;23.372;2023-02-14T05:05:56;61859.38;;;-140.05;100.00
14393;BME280;7281;42.678;23.372;2023-02-14T05:19:22;96330.19;;;6.09;43.67
14393;BME280;7281;42.678;23.372;2023-02-14T05:21:49;96317.41;;;6.21;43.13
14393;BME280;7281;42.678;23.372;2023-02-14T05:24:16;96315.34;;;6.03;43.37
14393;BME280;7281;42.678;23.372;2023-02-14T05:26:43;96311.56;;;6.12;43.35
14393;BME280;7281;42.678;23.372;2023-02-14T05:29:10;96332.31;;;6.33;42.79
14393;BME280;7281;42.678;23.372;2023-02-14T05:31:37;96333.03;;;6.21;43.68
14393;BME280;7281;42.678;23.372;2023-02-14T05:34:04;96334.59;;;6.15;43.00
14393;BME280;7281;42.678;23.372;2023-02-14T05:36:31;96329.31;;;6.36;42.80
14393;BME280;7281;42.678;23.372;2023-02-14T05:38:58;96328.09;;;6.32;42.93
14393;BME280;7281;42.678;23.372;2023-02-14T05:41:24;96321.66;;;6.28;42.87
14393;BME280;7281;42.678;23.372;2023-02-14T05:43:51;96320.25;;;6.26;43.55
14393;BME280;7281;42.678;23.372;2023-02-14T05:46:18;96318.34;;;6.47;42.61
14393;BME280;7281;42.678;23.372;2023-02-14T05:48:45;96311.13;;;6.49;43.19
14393;BME280;7281;42.678;23.372;2023-02-14T05:51:12;96325.53;;;6.45;42.70
14393;BME280;7281;42.678;23.372;2023-02-14T05:53:39;96327.78;;;6.07;43.71
14393;BME280;7281;42.678;23.372;2023-02-14T05:56:06;96315.13;;;6.45;44.88
14393;BME280;7281;42.678;23.372;2023-02-14T05:58:32;96298.31;;;6.54;43.15
14393;BME280;7281;42.678;23.372;2023-02-14T06:00:59;96320.47;;;7.10;43.21
14393;BME280;7281;42.678;23.372;2023-02-14T06:03:27;96325.69;;;7.04;41.92
14393;BME280;7281;42.678;23.372;2023-02-14T06:05:54;96328.66;;;6.81;42.09
14393;BME280;7281;42.678;23.372;2023-02-14T06:08:21;96329.91;;;6.98;42.41
14393;BME280;7281;42.678;23.372;2023-02-14T06:10:48;96333.66;;;6.76;41.99
14393;BME280;7281;42.678;23.372;2023-02-14T06:13:15;96336.41;;;6.68;42.65
14393;BME280;7281;42.678;23.372;2023-02-14T06:15:42;96333.66;;;6.76;42.19
14393;BME280;7281;42.678;23.372;2023-02-14T06:18:09;96332.47;;;6.85;42.38
14393;BME280;7281;42.678;23.372;2023-02-14T06:20:36;96336.56;;;7.21;41.97
14393;BME280;7281;42.678;23.372;2023-02-14T06:23:03;96329.69;;;7.00;41.83
14393;BME280;7281;42.678;23.372;2023-02-14T06:25:30;96331.53;;;7.26;43.34
14393;BME280;7281;42.678;23.372;2023-02-14T06:27:58;96342.97;;;7.38;42.40
14393;BME280;7281;42.678;23.372;2023-02-14T06:30:25;96329.28;;;6.96;42.14
14393;BME280;7281;42.678;23.372;2023-02-14T06:32:53;96339.16;;;7.21;42.25
14393;BME280;7281;42.678;23.372;2023-02-14T06:35:21;96320.47;;;7.10;42.04
14393;BME280;7281;42.678;23.372;2023-02-14T06:37:49;96326.88;;;6.95;42.28
14393;BME280;7281;42.678;23.372;2023-02-14T06:40:17;96336.91;;;7.04;42.35
14393;BME280;7281;42.678;23.372;2023-02-14T06:42:45;96337.34;;;7.14;42.05
14393;BME280;7281;42.678;23.372;2023-02-14T06:45:12;96342.13;;;6.98;42.41
14393;BME280;7281;42.678;23.372;2023-02-14T06:47:38;96322.47;;;6.95;42.10
14393;BME280;7281;42.678;23.372;2023-02-14T06:50:06;96333.19;;;6.60;42.88
14393;BME280;7281;42.678;23.372;2023-02-14T06:52:33;96320.91;;;7.21;42.71
14393;BME280;7281;42.678;23.372;2023-02-14T06:55:01;96308.88;;;7.26;41.97
14393;BME280;7281;42.678;23.372;2023-02-14T06:57:27;96317.69;;;7.45;41.44
14393;BME280;7281;42.678;23.372;2023-02-14T06:59:54;96328.13;;;7.58;41.83
14393;BME280;7281;42.678;23.372;2023-02-14T07:02:21;96317.25;;;7.87;41.59
14393;BME280;7281;42.678;23.372;2023-02-14T07:04:50;96318.09;;;7.48;42.05
14393;BME280;7281;42.678;23.372;2023-02-14T07:07:17;96313.28;;;7.52;41.89
14393;BME280;7281;42.678;23.372;2023-02-14T07:09:45;96297.63;;;7.26;42.11
14393;BME280;7281;42.678;23.372;2023-02-14T07:12:12;96285.22;;;7.28;41.59
14393;BME280;7281;42.678;23.372;2023-02-14T07:14:39;96302.66;;;7.40;41.91
14393;BME280;7281;42.678;23.372;2023-02-14T07:17:06;96300.38;;;7.83;41.42
14393;BME280;7281;42.678;23.372;2023-02-14T07:19:32;96309.47;;;7.48;42.58
14393;BME280;7281;42.678;23.372;2023-02-14T07:21:59;96314.03;;;6.93;42.81
14393;BME280;7281;42.678;23.372;2023-02-14T07:24:26;96307.25;;;7.38;42.94
14393;BME280;7281;42.678;23.372;2023-02-14T07:26:53;96312.63;;;7.89;42.42
14393;BME280;7281;42.678;23.372;2023-02-14T07:29:20;96313.28;;;7.52;42.78
14393;BME280;7281;42.678;23.372;2023-02-14T07:31:47;96304.63;;;6.92;44.17
14393;BME280;7281;42.678;23.372;2023-02-14T07:34:14;96307.66;;;7.15;44.54
14393;BME280;7281;42.678;23.372;2023-02-14T07:36:41;96320.88;;;7.07;44.57
14393;BME280;7281;42.678;23.372;2023-02-14T07:39:09;96312.28;;;7.40;44.09
14393;BME280;7281;42.678;23.372;2023-02-14T07:41:36;96315.25;;;6.97;45.01
14393;BME280;7281;42.678;23.372;2023-02-14T07:44:08;96305.97;;;6.75;45.47
14393;BME280;7281;42.678;23.372;2023-02-14T07:46:35;96321.69;;;7.01;45.99
14393;BME280;7281;42.678;23.372;2023-02-14T07:49:02;96322.47;;;7.02;45.60
14393;BME280;7281;42.678;23.372;2023-02-14T07:51:29;96341.56;;;7.35;45.01
14393;BME280;7281;42.678;23.372;2023-02-14T07:53:56;96334.28;;;7.04;45.21
14393;BME280;7281;42.678;23.372;2023-02-14T07:56:23;96342.94;;;7.18;45.61
14393;BME280;7281;42.678;23.372;2023-02-14T07:58:49;96337.16;;;7.42;45.20
14393;BME280;7281;42.678;23.372;2023-02-14T08:01:16;96329.91;;;7.25;45.26
14393;BME280;7281;42.678;23.372;2023-02-14T08:03:43;96346.19;;;7.33;45.60
14393;BME280;7281;42.678;23.372;2023-02-14T08:06:12;96340.94;;;7.00;45.91
14393;BME280;7281;42.678;23.372;2023-02-14T08:08:39;96342.97;;;7.38;45.29
14393;BME280;7281;42.678;23.372;2023-02-14T08:11:06;96361.41;;;7.36;46.02
14393;BME280;7281;42.678;23.372;2023-02-14T08:13:33;96352.56;;;7.17;46.17
14393;BME280;7281;42.678;23.372;2023-02-14T08:15:59;96357.38;;;7.07;46.18
14393;BME280;7281;42.678;23.372;2023-02-14T08:18:39;96354.19;;;7.58;45.72
14393;BME280;7281;42.678;23.372;2023-02-14T08:21:08;96358.22;;;7.86;44.67
14393;BME280;7281;42.678;23.372;2023-02-14T08:23:37;96365.84;;;7.62;45.15
14393;BME280;7281;42.678;23.372;2023-02-14T08:26:04;96358.63;;;7.77;44.94
14393;BME280;7281;42.678;23.372;2023-02-14T08:28:31;96372.28;;;7.66;45.17
14393;BME280;7281;42.678;23.372;2023-02-14T08:30:59;96359.03;;;7.48;45.49
14393;BME280;7281;42.678;23.372;2023-02-14T08:33:27;96348.78;;;7.53;45.63
14393;BME280;7281;42.678;23.372;2023-02-14T08:35:54;96337.75;;;7.11;45.40
14393;BME280;7281;42.678;23.372;2023-02-14T08:38:21;96352.63;;;7.37;45.99
14393;BME280;7281;42.678;23.372;2023-02-14T08:40:48;96345.38;;;7.33;45.73
14393;BME280;7281;42.678;23.372;2023-02-14T08:43:14;96364.19;;;7.08;46.57
14393;BME280;7281;42.678;23.372;2023-02-14T08:45:41;96361.03;;;7.52;45.73
14393;BME280;7281;42.678;23.372;2023-02-14T08:48:10;96358.22;;;7.41;45.55
14393;BME280;7281;42.678;23.372;2023-02-14T08:50:37;96366.25;;;7.72;45.15
14393;BME280;7281;42.678;23.372;2023-02-14T08:53:08;96380.69;;;7.48;45.27
14393;BME280;7281;42.678;23.372;2023-02-14T08:55:36;96366.25;;;7.26;46.27
14393;BME280;7281;42.678;23.372;2023-02-14T08:58:04;96376.56;;;6.93;46.85
14393;BME280;7281;42.678;23.372;2023-02-14T09:00:32;96371.84;;;7.56;45.75
14393;BME280;7281;42.678;23.372;2023-02-14T09:02:59;96375.03;;;7.18;47.33
14393;BME280;7281;42.678;23.372;2023-02-14T09:05:26;96362.22;;;7.17;47.05
14393;BME280;7281;42.678;23.372;2023-02-14T09:07:53;96356.22;;;7.69;45.64
14393;BME280;7281;42.678;23.372;2023-02-14T09:10:23;96353.59;;;7.30;46.14
14393;BME280;7281;42.678;23.372;2023-02-14T09:12:50;96359.19;;;7.92;45.79
14393;BME280;7281;42.678;23.372;2023-02-14T09:15:17;96364.63;;;7.45;46.24
14393;BME280;7281;42.678;23.372;2023-02-14T09:17:44;96341.75;;;7.07;47.13
14393;BME280;7281;42.678;23.372;2023-02-14T09:20:13;96345.34;;;7.19;46.37
14393;BME280;7281;42.678;23.372;2023-02-14T09:22:41;96340.34;;;7.38;46.58
14393;BME280;7281;42.678;23.372;2023-02-14T09:25:08;96333.94;;;7.60;46.24
14393;BME280;7281;42.678;23.372;2023-02-14T09:27:35;96315.69;;;7.27;46.33
14393;BME280;7281;42.678;23.372;2023-02-14T09:30:04;96346.97;;;7.34;46.18
14393;BME280;7281;42.678;23.372;2023-02-14T09:32:31;96354.28;;;6.84;47.61
14393;BME280;7281;42.678;23.372;2023-02-14T09:34:58;96339.56;;;7.44;46.27
14393;BME280;7281;42.678;23.372;2023-02-14T09:37:26;96338.84;;;8.20;44.56
14393;BME280;7281;42.678;23.372;2023-02-14T09:39:54;96328.53;;;7.35;46.63
14393;BME280;7281;42.678;23.372;2023-02-14T09:42:40;96342.53;;;7.21;46.83
14393;BME280;7281;42.678;23.372;2023-02-14T09:45:16;96335.94;;;7.38;46.23
14393;BME280;7281;42.678;23.372;2023-02-14T09:50:53;96339.22;;;6.60;48.05
14393;BME280;7281;42.678;23.372;2023-02-14T09:53:49;96287.13;;;6.73;46.95
14393;BME280;7281;42.678;23.372;2023-02-14T09:56:27;96330.84;;;6.84;46.95
14393;BME280;7281;42.678;23.372;2023-02-14T09:59:06;96320.44;;;6.84;47.13
14393;BME280;7281;42.678;23.372;2023-02-14T10:01:41;96335.03;;;6.72;47.48
14393;BME280;7281;42.678;23.372;2023-02-14T10:07:34;96329.31;;;7.09;47.51
14393;BME280;7281;42.678;23.372;2023-02-14T10:10:19;96323.91;;;7.11;47.19
14393;BME280;7281;42.678;23.372;2023-02-14T10:13:15;96326.47;;;6.98;46.96
14393;BME280;7281;42.678;23.372;2023-02-14T10:15:43;96326.22;;;6.73;47.63
14393;BME280;7281;42.678;23.372;2023-02-14T10:18:35;96320.50;;;7.43;45.94
14393;BME280;7281;42.678;23.372;2023-02-14T10:21:06;96312.88;;;7.29;46.80
14393;BME280;7281;42.678;23.372;2023-02-14T10:23:36;96311.28;;;7.41;45.92
14393;BME280;7281;42.678;23.372;2023-02-14T10:26:59;96310.88;;;7.70;45.37
14393;BME280;7281;42.678;23.372;2023-02-14T10:29:02;96298.44;;;7.19;46.38
14393;BME280;7281;42.678;23.372;2023-02-14T10:31:59;96293.00;;;7.67;45.52
14393;BME280;7281;42.678;23.372;2023-02-14T10:34:48;96308.44;;;7.62;45.24
14393;BME280;7281;42.678;23.372;2023-02-14T10:40:53;96307.22;;;6.92;46.57
14393;BME280;7281;42.678;23.372;2023-02-14T10:51:13;96310.88;;;7.17;46.03
14393;BME280;7281;42.678;23.372;2023-02-14T10:56:25;96289.22;;;7.37;45.76
14393;BME280;7281;42.678;23.372;2023-02-14T10:58:57;96291.59;;;6.92;46.19
14393;BME280;7281;42.678;23.372;2023-02-14T11:01:28;96286.81;;;7.29;45.44
14393;BME280;7281;42.678;23.372;2023-02-14T11:03:57;96292.00;;;7.15;46.42
14393;BME280;7281;42.678;23.372;2023-02-14T11:06:34;96274.75;;;6.88;46.33
14393;BME280;7281;42.678;23.372;2023-02-14T11:09:01;96296.63;;;7.13;45.70
14393;BME280;7281;42.678;23.372;2023-02-14T11:13:55;96299.59;;;7.63;44.67
14393;BME280;7281;42.678;23.372;2023-02-14T11:16:34;96299.63;;;7.43;45.41
14393;BME280;7281;42.678;23.372;2023-02-14T11:21:38;96292.00;;;7.55;44.85
14393;BME280;7281;42.678;23.372;2023-02-14T11:24:36;96298.81;;;6.90;45.15
14393;BME280;7281;42.678;23.372;2023-02-14T11:32:09;96268.56;;;7.29;44.81
14393;BME280;7281;42.678;23.372;2023-02-14T11:34:41;96280.19;;;7.19;45.23
14393;BME280;7281;42.678;23.372;2023-02-14T11:37:31;96280.78;;;7.22;44.74
14393;BME280;7281;42.678;23.372;2023-02-14T11:40:01;96274.59;;;7.09;44.76
14393;BME280;7281;42.678;23.372;2023-02-14T11:45:04;96247.88;;;7.40;44.13
14393;BME280;7281;42.678;23.372;2023-02-14T11:47:34;96251.47;;;7.59;43.27
14393;BME280;7281;42.678;23.372;2023-02-14T11:50:21;96249.50;;;7.48;44.04
14393;BME280;7281;42.678;23.372;2023-02-14T11:52:54;96249.63;;;7.79;43.07
14393;BME280;7281;42.678;23.372;2023-02-14T11:55:27;96231.00;;;7.56;42.77
14393;BME280;7281;42.678;23.372;2023-02-14T11:57:56;96245.88;;;7.49;43.27
14393;BME280;7281;42.678;23.372;2023-02-14T12:00:23;96243.44;;;7.54;42.99
14393;BME280;7281;42.678;23.372;2023-02-14T12:02:53;96231.06;;;7.30;43.60
14393;BME280;7281;42.678;23.372;2023-02-14T12:05:44;96230.44;;;7.21;43.67
14393;BME280;7281;42.678;23.372;2023-02-14T12:08:14;96229.66;;;7.07;43.41
14393;BME280;7281;42.678;23.372;2023-02-14T12:11:00;96227.59;;;7.49;43.11
14393;BME280;7281;42.678;23.372;2023-02-14T12:13:29;96230.06;;;7.37;43.24
14393;BME280;7281;42.678;23.372;2023-02-14T12:15:57;96220.56;;;7.56;43.30
14393;BME280;7281;42.678;23.372;2023-02-14T12:29:32;96217.50;;;8.36;41.82
14393;BME280;7281;42.678;23.372;2023-02-14T12:32:10;96200.41;;;7.89;42.00
14393;BME280;7281;42.678;23.372;2023-02-14T12:34:38;96216.72;;;8.22;41.63
14393;BME280;7281;42.678;23.372;2023-02-14T12:42:40;96191.59;;;8.65;40.92
14393;BME280;7281;42.678;23.372;2023-02-14T12:45:26;96203.47;;;8.61;41.42
14393;BME280;7281;42.678;23.372;2023-02-14T12:50:37;96201.91;;;9.09;40.12
14393;BME280;7281;42.678;23.372;2023-02-14T13:01:53;96211.09;;;8.94;40.54
14393;BME280;7281;42.678;23.372;2023-02-14T13:07:19;96201.66;;;8.62;41.15
14393;BME280;7281;42.678;23.372;2023-02-14T13:18:23;96195.91;;;8.78;41.99
14393;BME280;7281;42.678;23.372;2023-02-14T13:20:58;96182.91;;;8.40;42.30
14393;BME280;7281;42.678;23.372;2023-02-14T13:23:33;96187.53;;;8.69;42.17
14393;BME280;7281;42.678;23.372;2023-02-14T13:26:11;96171.41;;;8.79;41.93
14393;BME280;7281;42.678;23.372;2023-02-14T13:28:51;96188.81;;;8.60;42.06
14393;BME280;7281;42.678;23.372;2023-02-14T13:31:21;96125.56;;;7.83;43.32
14393;BME280;7281;42.678;23.372;2023-02-14T13:33:51;96191.78;;;8.39;43.03
14393;BME280;7281;42.678;23.372;2023-02-14T13:36:19;96185.28;;;8.04;43.09
14393;BME280;7281;42.678;23.372;2023-02-14T13:38:50;96182.47;;;8.43;42.55
14393;BME280;7281;42.678;23.372;2023-02-14T13:41:24;96181.91;;;7.97;43.13
14393;BME280;7281;42.678;23.372;2023-02-14T13:43:56;96190.41;;;8.30;43.10
14393;BME280;7281;42.678;23.372;2023-02-14T13:51:53;96195.28;;;8.82;41.56
14393;BME280;7281;42.678;23.372;2023-02-14T13:54:33;96186.78;;;8.62;41.94
14393;BME280;7281;42.678;23.372;2023-02-14T13:57:22;96196.88;;;8.59;42.28
14393;BME280;7281;42.678;23.372;2023-02-14T14:02:46;96196.22;;;8.32;43.08
14393;BME280;7281;42.678;23.372;2023-02-14T14:10:55;96200.78;;;8.74;42.48
14393;BME280;7281;42.678;23.372;2023-02-14T14:18:52;96181.56;;;8.62;42.26
14393;BME280;7281;42.678;23.372;2023-02-14T14:29:38;96195.69;;;8.17;42.73
14393;BME280;7281;42.678;23.372;2023-02-14T14:35:01;96164.50;;;8.29;43.22
14393;BME280;7281;42.678;23.372;2023-02-14T14:37:53;96173.69;;;8.93;41.79
14393;BME280;7281;42.678;23.372;2023-02-14T14:40:29;96176.44;;;8.49;42.62
14393;BME280;7281;42.678;23.372;2023-02-14T14:43:10;96152.94;;;8.11;43.36
14393;BME280;7281;42.678;23.372;2023-02-14T14:45:38;96172.53;;;8.27;43.26
14393;BME280;7281;42.678;23.372;2023-02-14T14:48:09;96171.81;;;8.07;43.22
14393;BME280;7281;42.678;23.372;2023-02-14T14:50:42;96167.31;;;8.58;42.05
14393;BME280;7281;42.678;23.372;2023-02-14T14:53:23;96163.97;;;8.51;42.85
14393;BME280;7281;42.678;23.372;2023-02-14T14:55:51;96166.81;;;8.43;42.12
14393;BME280;7281;42.678;23.372;2023-02-14T14:58:36;96171.13;;;8.62;41.91
14393;BME280;7281;42.678;23.372;2023-02-14T15:01:09;96171.78;;;8.82;41.96
14393;BME280;7281;42.678;23.372;2023-02-14T15:03:38;96172.41;;;8.47;42.14
14393;BME280;7281;42.678;23.372;2023-02-14T15:06:17;96183.00;;;8.27;43.11
14393;BME280;7281;42.678;23.372;2023-02-14T15:08:45;96187.75;;;8.37;42.71
14393;BME280;7281;42.678;23.372;2023-02-14T15:11:26;96188.63;;;8.24;42.96
14393;BME280;7281;42.678;23.372;2023-02-14T15:14:16;96177.56;;;8.29;42.73
14393;BME280;7281;42.678;23.372;2023-02-14T15:17:21;96191.66;;;8.59;41.91
14393;BME280;7281;42.678;23.372;2023-02-14T15:19:55;96187.16;;;8.35;42.72
14393;BME280;7281;42.678;23.372;2023-02-14T15:25:19;96175.31;;;8.63;42.41
14393;BME280;7281;42.678;23.372;2023-02-14T15:27:47;96192.75;;;8.00;42.72
14393;BME280;7281;42.678;23.372;2023-02-14T15:30:31;96202.16;;;8.46;42.96
14393;BME280;7281;42.678;23.372;2023-02-14T15:33:05;96194.03;;;8.60;42.36
14393;BME280;7281;42.678;23.372;2023-02-14T15:35:35;96194.06;;;8.16;43.38
14393;BME280;7281;42.678;23.372;2023-02-14T15:38:05;96192.94;;;8.43;42.26
14393;BME280;7281;42.678;23.372;2023-02-14T15:40:35;96186.41;;;8.59;41.55
14393;BME280;7281;42.678;23.372;2023-02-14T15:43:21;96193.78;;;8.37;42.86
14393;BME280;7281;42.678;23.372;2023-02-14T15:45:53;96179.41;;;8.53;42.63
14393;BME280;7281;42.678;23.372;2023-02-14T15:48:26;96197.31;;;8.49;42.55
14393;BME280;7281;42.678;23.372;2023-02-14T15:50:56;96187.44;;;8.82;41.53
14393;BME280;7281;42.678;23.372;2023-02-14T15:53:38;96201.84;;;8.91;41.24
14393;BME280;7281;42.678;23.372;2023-02-14T15:56:11;96194.72;;;8.05;42.98
14393;BME280;7281;42.678;23.372;2023-02-14T15:58:42;96199.41;;;8.41;42.26
14393;BME280;7281;42.678;23.372;2023-02-14T16:01:10;96203.06;;;8.33;42.30
14393;BME280;7281;42.678;23.372;2023-02-14T16:03:39;96178.75;;;8.64;41.57
14393;BME280;7281;42.678;23.372;2023-02-14T16:06:15;96199.47;;;8.28;42.73
14393;BME280;7281;42.678;23.372;2023-02-14T16:08:55;96204.09;;;8.19;43.01